createdAt,value
2019-06-27T00:01:41.918Z,60.24
2019-06-27T00:04:58.893Z,60.13
2019-06-27T00:08:06.882Z,60.06
2019-06-27T00:11:14.880Z,60.64
2019-06-27T00:14:22.749Z,61.30
2019-06-27T00:17:30.721Z,61.25
2019-06-27T00:20:38.712Z,61.40
2019-06-27T00:23:46.606Z,61.23
2019-06-27T00:27:03.592Z,61.40
2019-06-27T00:30:11.825Z,61.30
2019-06-27T00:33:29.071Z,61.32
2019-06-27T00:36:36.951Z,61.96
2019-06-27T00:39:44.936Z,61.92
2019-06-27T00:42:52.954Z,61.62
2019-06-27T00:46:00.940Z,62.02
2019-06-27T00:49:08.945Z,62.71
2019-06-27T00:52:17.008Z,62.30
2019-06-27T00:55:25.039Z,61.89
2019-06-27T00:58:33.066Z,62.39
2019-06-27T01:01:40.959Z,62.66
2019-06-27T01:04:48.841Z,62.02
2019-06-27T01:07:56.715Z,62.36
2019-06-27T01:11:04.697Z,62.26
2019-06-27T01:14:21.858Z,62.39
2019-06-27T01:17:29.861Z,62.33
2019-06-27T01:20:37.867Z,62.38
2019-06-27T01:23:45.833Z,62.58
2019-06-27T01:26:53.707Z,62.66
2019-06-27T01:30:01.885Z,61.81
2019-06-27T01:33:26.761Z,61.97
2019-06-27T01:36:34.640Z,61.83
2019-06-27T01:39:42.586Z,61.93
2019-06-27T01:42:50.470Z,61.78
2019-06-27T01:45:59.736Z,61.68
2019-06-27T01:49:27.062Z,62.08
2019-06-27T01:52:34.944Z,62.05
2019-06-27T01:55:42.921Z,62.10
2019-06-27T01:58:50.889Z,62.09
2019-06-27T02:01:59.028Z,61.79
2019-06-27T02:05:08.219Z,61.80
2019-06-27T02:08:16.161Z,61.81
2019-06-27T02:11:33.351Z,61.23
2019-06-27T02:14:41.338Z,61.27
2019-06-27T02:17:49.490Z,61.82
2019-06-27T02:20:57.556Z,61.56
2019-06-27T02:24:14.827Z,62.09
2019-06-27T02:27:23.961Z,61.79
2019-06-27T02:30:42.690Z,61.88
2019-06-27T02:33:50.643Z,61.72
2019-06-27T02:36:58.536Z,62.27
2019-06-27T02:40:07.043Z,62.62
2019-06-27T02:43:15.010Z,62.10
2019-06-27T02:46:22.941Z,62.33
2019-06-27T02:49:30.915Z,62.47
2019-06-27T02:52:38.865Z,62.29
2019-06-27T02:55:46.846Z,62.72
2019-06-27T02:58:54.833Z,62.72
2019-06-27T03:02:02.704Z,62.39
2019-06-27T03:05:12.497Z,61.99
2019-06-27T03:08:20.457Z,62.06
2019-06-27T03:11:28.437Z,61.32
2019-06-27T03:14:36.411Z,61.91
2019-06-27T03:17:45.326Z,62.18
2019-06-27T03:20:53.201Z,62.35
2019-06-27T03:24:01.255Z,61.98
2019-06-27T03:27:09.134Z,61.87
2019-06-27T03:30:17.847Z,62.48
2019-06-27T03:33:25.759Z,62.58
2019-06-27T03:36:33.803Z,62.38
2019-06-27T03:39:41.938Z,62.41
2019-06-27T03:42:49.887Z,61.09
2019-06-27T03:45:57.944Z,62.51
2019-06-27T03:49:05.854Z,62.53
2019-06-27T03:52:13.719Z,62.53
2019-06-27T03:55:21.694Z,61.62
2019-06-27T03:58:38.706Z,61.86
2019-06-27T04:01:46.697Z,62.03
2019-06-27T04:04:54.633Z,62.06
2019-06-27T04:08:02.630Z,62.29
2019-06-27T04:11:10.587Z,62.15
2019-06-27T04:14:18.563Z,62.62
2019-06-27T04:17:26.870Z,61.73
2019-06-27T04:20:34.732Z,61.79
2019-06-27T04:23:42.732Z,61.69
2019-06-27T04:26:50.717Z,61.61
2019-06-27T04:29:58.701Z,61.99
2019-06-27T04:33:06.594Z,61.84
2019-06-27T04:36:14.464Z,61.53
2019-06-27T04:39:22.531Z,61.25
2019-06-27T04:42:30.508Z,61.34
2019-06-27T04:45:38.381Z,60.51
2019-06-27T04:48:46.377Z,60.63
2019-06-27T04:52:03.418Z,60.47
2019-06-27T04:55:11.730Z,60.45
2019-06-27T04:58:28.914Z,60.35
2019-06-27T05:01:36.794Z,60.38
2019-06-27T05:04:44.740Z,60.57
2019-06-27T05:07:52.631Z,60.36
2019-06-27T05:11:00.571Z,60.70
2019-06-27T05:14:08.555Z,60.97
2019-06-27T05:17:16.538Z,60.38
2019-06-27T05:20:33.596Z,60.86
2019-06-27T05:23:41.588Z,60.94
2019-06-27T05:26:49.583Z,60.77
2019-06-27T05:30:08.600Z,60.74
2019-06-27T05:33:07.170Z,60.87
2019-06-27T05:36:15.019Z,60.75
2019-06-27T05:39:23.032Z,59.68
2019-06-27T05:42:31.045Z,59.78
2019-06-27T05:45:39.001Z,59.66
2019-06-27T05:48:46.901Z,58.91
2019-06-27T05:51:54.784Z,59.17
2019-06-27T05:55:12.138Z,59.23
2019-06-27T05:58:20.023Z,58.41
2019-06-27T06:01:27.914Z,58.80
2019-06-27T06:04:35.889Z,58.14
2019-06-27T06:07:43.899Z,56.27
2019-06-27T06:10:51.885Z,54.96
2019-06-27T06:13:59.780Z,54.91
2019-06-27T06:17:07.734Z,54.34
2019-06-27T06:20:16.760Z,53.31
2019-06-27T06:23:24.751Z,53.63
2019-06-27T06:26:32.815Z,54.59
2019-06-27T06:29:40.701Z,54.98
2019-06-27T06:32:48.708Z,55.59
2019-06-27T06:35:56.782Z,55.78
2019-06-27T06:39:05.993Z,56.08
2019-06-27T06:42:13.861Z,56.75
2019-06-27T06:45:31.085Z,56.77
2019-06-27T06:48:38.966Z,57.29
2019-06-27T06:51:46.969Z,56.98
2019-06-27T06:54:55.198Z,56.91
2019-06-27T06:58:12.540Z,56.59
2019-06-27T07:01:20.626Z,56.38
2019-06-27T07:04:28.581Z,56.42
2019-06-27T07:07:36.547Z,56.31
2019-06-27T07:10:44.571Z,56.68
2019-06-27T07:13:52.559Z,56.09
2019-06-27T07:17:00.480Z,56.47
2019-06-27T07:20:08.948Z,57.19
2019-06-27T07:23:26.135Z,57.16
2019-06-27T07:26:34.498Z,56.85
2019-06-27T07:29:51.449Z,57.56
2019-06-27T07:32:59.432Z,57.31
2019-06-27T07:36:07.332Z,57.55
2019-06-27T07:39:15.204Z,56.95
2019-06-27T07:42:23.247Z,57.02
2019-06-27T07:45:31.178Z,56.99
2019-06-27T07:48:39.107Z,57.43
2019-06-27T07:51:47.187Z,57.50
2019-06-27T07:54:55.108Z,56.98
2019-06-27T07:58:12.169Z,56.90
2019-06-27T08:01:34.111Z,56.71
2019-06-27T08:04:29.775Z,56.61
2019-06-27T08:07:37.691Z,56.49
2019-06-27T08:10:45.651Z,56.69
2019-06-27T08:13:53.658Z,56.71
2019-06-27T08:17:01.684Z,56.68
2019-06-27T08:20:10.135Z,57.17
2019-06-27T08:23:40.580Z,56.78
2019-06-27T08:26:36.988Z,57.21
2019-06-27T08:29:44.867Z,57.61
2019-06-27T08:32:52.908Z,57.94
2019-06-27T08:36:00.859Z,58.19
2019-06-27T08:39:08.975Z,59.09
2019-06-27T08:42:26.305Z,59.43
2019-06-27T08:45:34.279Z,59.75
2019-06-27T08:48:42.156Z,60.22
2019-06-27T08:51:50.143Z,60.66
2019-06-27T08:54:58.359Z,60.80
2019-06-27T08:58:06.402Z,60.77
2019-06-27T09:01:14.278Z,61.07
2019-06-27T09:04:22.263Z,60.93
2019-06-27T09:07:30.307Z,60.98
2019-06-27T09:10:38.283Z,60.63
2019-06-27T09:13:46.270Z,60.06
2019-06-27T09:16:54.183Z,60.36
2019-06-27T09:20:02.122Z,60.97
2019-06-27T09:23:10.770Z,61.39
2019-06-27T09:26:28.183Z,61.80
2019-06-27T09:29:36.086Z,62.18
2019-06-27T09:32:53.566Z,61.42
2019-06-27T09:36:01.494Z,61.78
2019-06-27T09:39:09.421Z,62.18
2019-06-27T09:42:17.390Z,62.28
2019-06-27T09:45:26.390Z,62.37
2019-06-27T09:48:43.681Z,62.84
2019-06-27T09:51:51.565Z,62.53
2019-06-27T09:54:59.448Z,62.05
2019-06-27T09:58:07.493Z,61.76
2019-06-27T10:01:15.574Z,60.35
2019-06-27T10:04:23.444Z,58.90
2019-06-27T10:07:31.463Z,59.34
2019-06-27T10:10:39.519Z,59.86
2019-06-27T10:13:47.395Z,60.91
2019-06-27T10:16:58.479Z,62.16
2019-06-27T10:20:05.952Z,61.44
2019-06-27T10:23:13.859Z,60.47
2019-06-27T10:26:21.868Z,60.50
2019-06-27T10:29:29.840Z,59.97
2019-06-27T10:32:37.733Z,59.39
2019-06-27T10:35:45.605Z,58.85
2019-06-27T10:39:02.833Z,58.00
2019-06-27T10:42:10.895Z,57.93
2019-06-27T10:45:19.027Z,57.95
2019-06-27T10:48:27.145Z,59.22
2019-06-27T10:51:44.251Z,60.18
2019-06-27T10:54:52.204Z,58.88
2019-06-27T10:58:00.174Z,57.37
2019-06-27T11:01:08.227Z,55.91
2019-06-27T11:04:16.780Z,56.49
2019-06-27T11:07:24.735Z,56.40
2019-06-27T11:10:32.757Z,56.97
2019-06-27T11:13:40.731Z,57.45
2019-06-27T11:16:57.728Z,56.98
2019-06-27T11:20:06.186Z,57.25
2019-06-27T11:23:23.238Z,56.40
2019-06-27T11:26:31.270Z,56.66
2019-06-27T11:29:39.191Z,56.58
2019-06-27T11:32:47.088Z,55.82
2019-06-27T11:35:55.086Z,55.00
2019-06-27T11:39:03.143Z,54.08
2019-06-27T11:42:11.293Z,55.08
2019-06-27T11:45:19.562Z,55.38
2019-06-27T11:48:36.726Z,55.28
2019-06-27T11:51:44.767Z,55.67
2019-06-27T11:54:52.695Z,55.16
2019-06-27T11:58:00.600Z,54.59
2019-06-27T12:01:08.593Z,54.01
2019-06-27T12:04:16.491Z,53.96
2019-06-27T12:07:27.461Z,54.38
2019-06-27T12:10:45.054Z,54.38
2019-06-27T12:13:53.047Z,55.03
2019-06-27T12:17:10.141Z,54.79
2019-06-27T12:20:18.256Z,54.44
2019-06-27T12:23:26.162Z,54.80
2019-06-27T12:26:34.058Z,53.54
2019-06-27T12:29:42.135Z,53.42
2019-06-27T12:32:52.263Z,53.64
2019-06-27T12:36:01.370Z,53.18
2019-06-27T12:39:10.249Z,53.10
2019-06-27T12:42:31.600Z,53.47
2019-06-27T12:45:37.251Z,53.69
2019-06-27T12:48:46.158Z,54.06
2019-06-27T12:51:54.277Z,54.07
2019-06-27T12:55:11.624Z,53.39
2019-06-27T12:58:19.640Z,54.08
2019-06-27T13:01:37.015Z,52.76
2019-06-27T13:04:45.044Z,52.04
2019-06-27T13:07:52.903Z,51.75
2019-06-27T13:11:00.805Z,51.38
2019-06-27T13:14:08.879Z,51.31
2019-06-27T13:17:16.879Z,52.17
2019-06-27T13:20:25.430Z,52.70
2019-06-27T13:23:33.523Z,52.50
2019-06-27T13:26:41.409Z,53.70
2019-06-27T13:29:49.376Z,53.63
2019-06-27T13:33:06.558Z,53.62
2019-06-27T13:36:14.507Z,54.38
2019-06-27T13:39:32.078Z,54.53
2019-06-27T13:42:40.415Z,55.12
2019-06-27T13:45:48.431Z,54.99
2019-06-27T13:48:56.758Z,54.99
2019-06-27T13:52:05.035Z,56.19
2019-06-27T13:55:24.102Z,56.30
2019-06-27T13:58:32.548Z,56.39
2019-06-27T14:01:40.567Z,56.12
2019-06-27T14:04:57.014Z,55.98
2019-06-27T14:07:58.266Z,55.70
2019-06-27T14:11:06.330Z,55.95
2019-06-27T14:14:14.352Z,55.97
2019-06-27T14:17:22.343Z,55.31
2019-06-27T14:20:30.397Z,54.74
2019-06-27T14:23:48.163Z,55.30
2019-06-27T14:26:56.063Z,55.55
2019-06-27T14:30:04.164Z,55.29
2019-06-27T14:33:12.159Z,55.28
2019-06-27T14:36:20.165Z,55.82
2019-06-27T14:39:28.293Z,56.33
2019-06-27T14:42:36.229Z,57.00
2019-06-27T14:45:44.151Z,57.40
2019-06-27T14:48:52.071Z,57.20
2019-06-27T14:52:00.068Z,57.48
2019-06-27T14:55:09.076Z,57.67
2019-06-27T14:58:17.024Z,58.16
2019-06-27T15:01:24.911Z,57.08
2019-06-27T15:04:32.918Z,56.54
2019-06-27T15:07:40.832Z,56.46
2019-06-27T15:10:48.879Z,56.05
2019-06-27T15:13:57.052Z,54.55
2019-06-27T15:17:05.167Z,55.01
2019-06-27T15:20:13.400Z,54.61
2019-06-27T15:23:30.458Z,54.33
2019-06-27T15:26:38.491Z,54.05
2019-06-27T15:29:46.410Z,53.26
2019-06-27T15:32:54.297Z,53.45
2019-06-27T15:36:02.279Z,53.72
2019-06-27T15:39:12.047Z,53.64
2019-06-27T15:42:29.608Z,53.89
2019-06-27T15:45:55.452Z,54.13
2019-06-27T15:49:12.825Z,54.52
2019-06-27T15:52:20.868Z,54.39
2019-06-27T15:55:38.141Z,54.35
2019-06-27T15:58:44.658Z,53.87
2019-06-27T16:01:52.739Z,54.40
2019-06-27T16:05:11.134Z,54.33
2019-06-27T16:08:19.117Z,54.36
2019-06-27T16:11:27.105Z,55.30
2019-06-27T16:14:35.118Z,55.15
2019-06-27T16:17:52.567Z,55.74
2019-06-27T16:21:00.665Z,55.30
2019-06-27T16:24:17.923Z,54.94
2019-06-27T16:27:26.405Z,55.50
2019-06-27T16:30:34.502Z,55.76
2019-06-27T16:33:42.465Z,55.58
2019-06-27T16:36:50.461Z,55.38
2019-06-27T16:39:58.523Z,55.69
2019-06-27T16:43:06.415Z,56.19
2019-06-27T16:46:14.320Z,56.88
2019-06-27T16:49:31.444Z,57.12
2019-06-27T16:52:39.404Z,57.51
2019-06-27T16:55:47.440Z,57.65
2019-06-27T16:58:55.455Z,56.73
2019-06-27T17:02:06.788Z,57.14
2019-06-27T17:05:13.322Z,57.41
2019-06-27T17:08:30.501Z,56.65
2019-06-27T17:11:38.441Z,56.64
2019-06-27T17:14:46.416Z,56.51
2019-06-27T17:17:54.430Z,57.00
2019-06-27T17:21:02.439Z,57.23
2019-06-27T17:24:10.644Z,57.06
2019-06-27T17:27:28.025Z,56.64
2019-06-27T17:30:35.939Z,56.07
2019-06-27T17:33:43.824Z,56.28
2019-06-27T17:36:57.576Z,56.59
2019-06-27T17:40:01.533Z,56.48
2019-06-27T17:43:09.545Z,56.94
2019-06-27T17:46:17.580Z,57.32
2019-06-27T17:49:25.688Z,57.28
2019-06-27T17:52:33.565Z,57.38
2019-06-27T17:55:41.562Z,57.25
2019-06-27T17:58:49.508Z,57.35
2019-06-27T18:01:57.544Z,57.16
2019-06-27T18:05:05.980Z,57.73
2019-06-27T18:08:13.868Z,58.28
2019-06-27T18:11:31.130Z,57.73
2019-06-27T18:14:39.028Z,58.28
2019-06-27T18:17:47.016Z,58.14
2019-06-27T18:20:54.913Z,57.74
2019-06-27T18:24:02.803Z,58.18
2019-06-27T18:27:19.851Z,57.66
2019-06-27T18:30:27.986Z,58.04
2019-06-27T18:33:35.890Z,58.41
2019-06-27T18:36:47.437Z,58.78
2019-06-27T18:40:05.189Z,57.98
2019-06-27T18:43:13.087Z,58.24
2019-06-27T18:46:21.141Z,58.58
2019-06-27T18:49:29.064Z,58.40
2019-06-27T18:52:36.952Z,58.49
2019-06-27T18:55:44.866Z,58.31
2019-06-27T18:59:08.108Z,58.97
2019-06-27T19:02:16.096Z,59.34
2019-06-27T19:05:24.144Z,59.75
2019-06-27T19:08:32.035Z,58.88
2019-06-27T19:11:40.032Z,59.36
2019-06-27T19:14:48.148Z,59.49
2019-06-27T19:17:56.220Z,59.75
2019-06-27T19:21:07.325Z,59.89
2019-06-27T19:24:35.874Z,60.63
2019-06-27T19:27:43.771Z,60.71
2019-06-27T19:30:51.665Z,60.21
2019-06-27T19:34:08.863Z,59.92
2019-06-27T19:37:16.745Z,59.22
2019-06-27T19:40:24.976Z,58.53
2019-06-27T19:43:32.991Z,59.00
2019-06-27T19:46:50.337Z,59.06
2019-06-27T19:49:58.570Z,58.76
2019-06-27T19:53:06.806Z,58.81
2019-06-27T19:56:14.839Z,59.20
2019-06-27T19:59:25.230Z,59.44
2019-06-27T20:02:32.401Z,59.64
2019-06-27T20:05:40.448Z,59.94
2019-06-27T20:08:48.464Z,60.16
2019-06-27T20:11:56.552Z,60.51
2019-06-27T20:15:04.571Z,60.44
2019-06-27T20:18:12.566Z,60.67
2019-06-27T20:21:20.626Z,60.84
2019-06-27T20:24:28.529Z,61.12
2019-06-27T20:27:36.438Z,60.56
2019-06-27T20:30:44.415Z,60.70
2019-06-27T20:33:52.403Z,60.25
2019-06-27T20:37:00.471Z,60.63
2019-06-27T20:40:09.554Z,60.66
2019-06-27T20:43:17.525Z,60.39
2019-06-27T20:46:25.435Z,60.64
2019-06-27T20:49:33.355Z,61.02
2019-06-27T20:52:41.262Z,61.30
2019-06-27T20:55:49.216Z,61.04
2019-06-27T20:58:57.198Z,61.11
2019-06-27T21:02:05.257Z,61.34
2019-06-27T21:05:13.548Z,60.91
2019-06-27T21:08:21.567Z,61.44
2019-06-27T21:11:29.570Z,61.08
2019-06-27T21:14:37.590Z,61.37
2019-06-27T21:17:46.101Z,61.30
2019-06-27T21:20:54.007Z,61.04
2019-06-27T21:24:01.992Z,61.49
2019-06-27T21:27:18.963Z,60.98
2019-06-27T21:30:27.175Z,60.73
2019-06-27T21:33:35.072Z,61.15
2019-06-27T21:36:42.973Z,61.18
2019-06-27T21:39:50.905Z,60.98
2019-06-27T21:42:58.825Z,60.50
2019-06-27T21:46:07.015Z,60.70
2019-06-27T21:49:15.005Z,60.65
2019-06-27T21:52:23.001Z,60.30
2019-06-27T21:55:31.144Z,60.20
2019-06-27T21:58:39.038Z,60.03
2019-06-27T22:01:47.052Z,60.74
2019-06-27T22:04:54.985Z,60.72
2019-06-27T22:08:02.906Z,60.95
2019-06-27T22:11:10.931Z,61.09
2019-06-27T22:14:18.817Z,61.36
2019-06-27T22:17:26.718Z,61.55
2019-06-27T22:20:43.666Z,61.83
2019-06-27T22:23:51.635Z,61.92
2019-06-27T22:26:59.516Z,61.73
2019-06-27T22:30:08.238Z,61.71
2019-06-27T22:33:16.178Z,61.64
2019-06-27T22:36:24.200Z,62.01
2019-06-27T22:39:58.562Z,62.01
2019-06-27T22:43:24.375Z,61.94
2019-06-27T22:46:49.999Z,61.50
2019-06-27T22:49:57.126Z,61.54
2019-06-27T22:53:11.946Z,61.49
2019-06-27T22:56:37.017Z,61.49
2019-06-27T22:59:45.015Z,60.96
2019-06-27T23:02:53.072Z,61.04
2019-06-27T23:06:01.196Z,60.59
2019-06-27T23:09:18.677Z,61.07
2019-06-27T23:12:26.668Z,61.31
2019-06-27T23:15:44.203Z,61.10
2019-06-27T23:18:52.194Z,61.02
2019-06-27T23:22:09.464Z,60.22
2019-06-27T23:25:17.611Z,61.07
2019-06-27T23:28:34.957Z,61.53
2019-06-27T23:31:42.947Z,61.14
2019-06-27T23:34:50.940Z,61.22
2019-06-27T23:37:58.870Z,61.84
2019-06-27T23:41:06.761Z,61.76
2019-06-27T23:44:14.876Z,62.15
2019-06-27T23:47:22.806Z,61.48
2019-06-27T23:50:30.853Z,61.72
2019-06-27T23:53:38.833Z,61.85
2019-06-27T23:56:46.922Z,62.04
2019-06-27T23:59:54.818Z,61.92
